Time;durP1;ratioP1;P1;durP2;ratioP2;P2;SDS_P1;SDS_P2;PMS_P1;PMS_P2;Temp;Humidity;BMP_temperature;BMP_pressure;BME280_temperature;BME280_humidity;BME280_pressure;Samples;Min_cycle;Max_cycle;Signal;HPM_P1;HPM_P2
2022/09/02 00:01:28;;;;;;;5.83;1.40;;;14.40;89.50;;;;;;4924114;29;20114;-72
2022/09/02 00:04:05;;;;;;;7.05;1.88;;;14.40;89.40;;;;;;4957881;29;20394;-71
2022/09/02 00:06:32;;;;;;;7.13;1.70;;;14.40;89.60;;;;;;4940125;29;20051;-72
2022/09/02 00:09:00;;;;;;;6.43;1.35;;;14.40;89.50;;;;;;4940185;29;20449;-72
2022/09/02 00:11:27;;;;;;;;;;;14.40;89.80;;;;;;4925375;29;20055;-71
2022/09/02 00:13:54;;;;;;;5.40;2.35;;;14.30;89.70;;;;;;4956936;29;19929;-72
2022/09/02 00:16:22;;;;;;;5.82;1.80;;;14.30;89.80;;;;;;4957040;29;20054;-71
2022/09/02 00:18:50;;;;;;;6.32;1.67;;;14.30;89.90;;;;;;4939910;29;20065;-73
2022/09/02 00:21:17;;;;;;;7.13;1.63;;;14.30;90.00;;;;;;4956659;29;20043;-70
2022/09/02 00:23:44;;;;;;;11.05;2.00;;;14.30;90.10;;;;;;4924608;29;20436;-71
2022/09/02 00:26:12;;;;;;;5.60;1.60;;;14.20;90.10;;;;;;4957181;29;20047;-73
2022/09/02 00:28:38;;;;;;;5.80;1.50;;;14.20;90.10;;;;;;4940000;29;20051;-72
2022/09/02 00:31:04;;;;;;;5.78;1.90;;;14.20;90.30;;;;;;4939813;29;20058;-72
2022/09/02 00:33:30;;;;;;;7.03;1.60;;;14.20;90.30;;;;;;4957084;29;20105;-71
2022/09/02 00:35:59;;;;;;;4.30;1.58;;;14.20;90.30;;;;;;4956435;29;20054;-72
2022/09/02 00:38:25;;;;;;;7.72;1.60;;;14.20;90.40;;;;;;4923556;29;20055;-72
2022/09/02 00:40:52;;;;;;;4.50;1.52;;;14.20;90.40;;;;;;4938948;29;20059;-72
2022/09/02 00:43:41;;;;;;;4.20;1.85;;;14.10;90.50;;;;;;4940244;29;20129;-71
2022/09/02 00:46:07;;;;;;;9.68;1.42;;;14.10;90.60;;;;;;4939370;29;20126;-72
2022/09/02 00:48:34;;;;;;;4.60;1.73;;;14.20;90.60;;;;;;4939354;28;20062;-71
2022/09/02 00:51:02;;;;;;;4.93;1.52;;;14.10;90.60;;;;;;4956580;29;20500;-71
2022/09/02 00:53:29;;;;;;;8.32;1.80;;;14.10;90.80;;;;;;4957044;29;20145;-72
2022/09/02 00:55:55;;;;;;;6.20;1.45;;;14.10;90.80;;;;;;4956217;29;20063;-71
2022/09/02 00:58:25;;;;;;;6.97;1.80;;;14.10;90.90;;;;;;4939332;29;20051;-71
2022/09/02 01:00:56;;;;;;;5.75;2.00;;;14.00;90.80;;;;;;4939006;29;20055;-73
2022/09/02 01:03:25;;;;;;;5.60;1.77;;;14.00;91.00;;;;;;4923353;29;20057;-71
2022/09/02 01:05:53;;;;;;;11.57;1.90;;;14.10;91.10;;;;;;4955777;29;20604;-71
2022/09/02 01:08:25;;;;;;;6.22;1.90;;;14.00;91.10;;;;;;4923197;29;20559;-72
2022/09/02 01:10:54;;;;;;;5.80;1.70;;;14.00;91.10;;;;;;4956664;29;20102;-71
2022/09/02 01:13:24;;;;;;;6.75;2.15;;;14.00;91.20;;;;;;4956403;29;20047;-70
2022/09/02 01:16:22;;;;;;;4.90;1.83;;;14.00;91.30;;;;;;4956185;29;20059;-71
2022/09/02 01:18:51;;;;;;;6.82;2.08;;;14.00;91.40;;;;;;4956176;29;20050;-71
2022/09/02 01:21:17;;;;;;;5.05;1.90;;;13.90;91.40;;;;;;4939063;29;20047;-71
2022/09/02 01:23:44;;;;;;;6.80;1.97;;;13.80;91.40;;;;;;4939337;29;20334;-71
2022/09/02 01:26:10;;;;;;;;;;;13.90;91.50;;;;;;4956060;29;20299;-70
2022/09/02 01:28:36;;;;;;;10.83;2.43;;;13.80;91.50;;;;;;4938732;29;20047;-72
2022/09/02 01:31:02;;;;;;;9.17;2.50;;;13.70;91.60;;;;;;4938700;29;20062;-71
2022/09/02 01:33:28;;;;;;;5.13;2.10;;;13.70;91.80;;;;;;4938872;29;20043;-72
2022/09/02 01:35:54;;;;;;;8.10;2.13;;;13.70;91.80;;;;;;4922961;29;20499;-71
2022/09/02 01:38:22;;;;;;;9.63;2.17;;;13.70;91.90;;;;;;4938948;29;20137;-72
2022/09/02 01:40:48;;;;;;;6.63;2.30;;;13.70;92.00;;;;;;4938619;29;20074;-70
2022/09/02 01:43:18;;;;;;;7.80;2.57;;;13.60;92.10;;;;;;4955565;29;20059;-72
2022/09/02 01:45:45;;;;;;;5.40;2.45;;;13.60;92.20;;;;;;4922562;29;20054;-71
2022/09/02 01:48:12;;;;;;;5.78;2.38;;;13.60;92.60;;;;;;4955422;29;20055;-70
2022/09/02 01:50:41;;;;;;;5.68;2.20;;;13.50;92.30;;;;;;4955355;28;20110;-72
2022/09/02 01:53:06;;;;;;;5.65;2.33;;;13.50;92.50;;;;;;4955453;29;20051;-71
2022/09/02 01:55:33;;;;;;;5.35;2.28;;;13.50;92.50;;;;;;4954848;29;20568;-70
2022/09/02 01:57:59;;;;;;;5.13;2.22;;;13.50;92.60;;;;;;4955183;29;20129;-72
2022/09/02 02:07:58;;;;;;;8.57;2.78;;;13.40;92.90;;;;;;4891702;29;20047;-72
2022/09/02 02:11:08;;;;;;;6.50;2.83;;;13.30;93.00;;;;;;4954963;29;20122;-72
2022/09/02 02:13:47;;;;;;;6.85;2.72;;;13.40;93.10;;;;;;4944241;29;20051;-73
2022/09/02 02:16:19;;;;;;;6.32;2.58;;;13.20;93.10;;;;;;4906854;29;20098;-72
2022/09/02 02:19:29;;;;;;;8.27;2.60;;;13.20;93.10;;;;;;4920596;29;20051;-72
2022/09/02 02:22:20;;;;;;;7.15;2.70;;;13.20;93.30;;;;;;4936130;29;20542;-72
2022/09/02 02:25:27;;;;;;;9.13;2.70;;;13.20;93.50;;;;;;4939204;29;20057;-72
2022/09/02 02:31:33;;;;;;;6.90;2.92;;;13.20;93.70;;;;;;4891896;29;20046;-71
2022/09/02 02:33:59;;;;;;;10.07;2.95;;;13.10;93.60;;;;;;4920526;29;20051;-72
2022/09/02 02:36:25;;;;;;;10.40;2.80;;;13.10;93.70;;;;;;4952272;29;20051;-71
2022/09/02 02:38:50;;;;;;;7.72;2.88;;;13.10;93.80;;;;;;4937020;29;20055;-71
2022/09/02 02:41:16;;;;;;;10.90;2.95;;;13.00;93.90;;;;;;4936538;29;20380;-71
2022/09/02 02:43:43;;;;;;;7.93;3.05;;;13.00;93.90;;;;;;4936371;29;20058;-72
2022/09/02 02:46:08;;;;;;;9.32;3.20;;;13.00;94.10;;;;;;4936118;29;20488;-71
2022/09/02 02:48:35;;;;;;;7.57;2.88;;;12.90;94.10;;;;;;4952241;29;20150;-71
2022/09/02 02:51:02;;;;;;;4.88;2.95;;;12.90;94.20;;;;;;4936224;29;20507;-72
2022/09/02 02:53:30;;;;;;;7.45;2.90;;;12.90;94.30;;;;;;4921053;29;20149;-71
2022/09/02 02:55:59;;;;;;;6.93;3.20;;;12.90;94.50;;;;;;4954841;29;20353;-71
2022/09/02 02:58:25;;;;;;;7.53;3.25;;;12.90;94.50;;;;;;4954923;29;20449;-71
2022/09/02 03:00:50;;;;;;;9.43;3.67;;;12.90;94.50;;;;;;4954264;29;20067;-71
2022/09/02 03:03:21;;;;;;;10.40;3.78;;;12.80;94.70;;;;;;4936831;29;20109;-71
2022/09/02 03:05:48;;;;;;;7.47;3.15;;;12.80;94.80;;;;;;4937311;29;20051;-71
2022/09/02 03:08:14;;;;;;;;;;;12.80;94.80;;;;;;4922018;29;20315;-71
2022/09/02 03:10:41;;;;;;;6.68;3.42;;;12.80;94.90;;;;;;4936957;29;19977;-72
2022/09/02 03:13:08;;;;;;;8.13;3.30;;;12.80;94.80;;;;;;4937737;29;20052;-72
2022/09/02 03:15:35;;;;;;;9.15;3.60;;;12.70;95.00;;;;;;4953940;29;20082;-71
2022/09/02 03:18:01;;;;;;;8.70;3.50;;;12.70;95.00;;;;;;4921415;29;20055;-71
2022/09/02 03:20:27;;;;;;;8.88;3.60;;;12.70;95.10;;;;;;4954158;29;20134;-71
2022/09/02 03:22:55;;;;;;;7.25;3.60;;;12.60;95.20;;;;;;4954724;29;20465;-72
2022/09/02 03:25:22;;;;;;;9.43;3.72;;;12.60;95.30;;;;;;4937011;29;20043;-70
2022/09/02 03:27:48;;;;;;;6.95;3.30;;;12.60;95.90;;;;;;4938394;29;20055;-72
2022/09/02 03:30:23;;;;;;;8.10;3.30;;;12.50;95.60;;;;;;4921351;29;20126;-71
2022/09/02 03:32:49;;;;;;;8.70;3.78;;;12.50;95.70;;;;;;4954124;29;20133;-71
2022/09/02 03:35:18;;;;;;;8.15;3.20;;;12.50;95.70;;;;;;4936983;29;20062;-72
2022/09/02 03:37:45;;;;;;;6.57;3.28;;;12.50;95.80;;;;;;4954149;29;20420;-71
2022/09/02 03:40:14;;;;;;;6.85;3.55;;;12.40;95.90;;;;;;4954295;29;20051;-73
2022/09/02 03:42:40;;;;;;;8.07;3.50;;;12.50;96.00;;;;;;4954144;29;20101;-71
2022/09/02 03:45:08;;;;;;;9.77;3.53;;;12.50;96.10;;;;;;4954268;29;20138;-72
2022/09/02 03:47:34;;;;;;;9.40;4.10;;;12.40;96.30;;;;;;4937209;29;20051;-71
2022/09/02 03:50:00;;;;;;;11.23;4.18;;;12.40;96.30;;;;;;4953967;29;20054;-72
2022/09/02 03:52:26;;;;;;;8.15;3.90;;;12.40;96.40;;;;;;4936835;29;20055;-71
2022/09/02 03:54:52;;;;;;;8.82;3.95;;;12.40;96.40;;;;;;4953921;29;20043;-71
2022/09/02 03:57:19;;;;;;;13.85;4.03;;;12.30;96.60;;;;;;4953874;29;20500;-72
2022/09/02 03:59:45;;;;;;;10.50;4.22;;;12.30;97.10;;;;;;4920951;29;20067;-73
2022/09/02 04:02:11;;;;;;;8.35;3.83;;;12.30;96.80;;;;;;4937276;29;20039;-72
2022/09/02 04:04:37;;;;;;;8.65;4.05;;;12.30;96.80;;;;;;4953987;29;20051;-73
2022/09/02 04:07:03;;;;;;;7.80;3.97;;;12.30;96.90;;;;;;4953727;29;20047;-70
2022/09/02 04:09:29;;;;;;;8.20;3.92;;;12.30;97.10;;;;;;4954123;29;20126;-71
2022/09/02 04:11:54;;;;;;;13.45;4.53;;;12.30;97.20;;;;;;4936915;29;20047;-72
2022/09/02 04:14:20;;;;;;;8.70;4.30;;;12.20;97.20;;;;;;4954388;28;20439;-72
2022/09/02 04:16:46;;;;;;;7.85;4.38;;;12.20;97.20;;;;;;4957385;29;20081;-71
2022/09/02 04:19:12;;;;;;;11.73;4.70;;;12.20;97.30;;;;;;4957046;29;20054;-72
2022/09/02 04:21:39;;;;;;;12.40;5.03;;;12.10;97.40;;;;;;4940157;29;20047;-72
2022/09/02 04:24:08;;;;;;;12.98;4.75;;;12.10;97.50;;;;;;4939991;29;20062;-73
2022/09/02 04:26:34;;;;;;;10.80;5.05;;;12.10;97.80;;;;;;4939806;29;20171;-72
2022/09/02 04:29:00;;;;;;;14.43;4.83;;;12.10;98.00;;;;;;4956872;29;20044;-72
2022/09/02 04:31:29;;;;;;;10.93;5.10;;;12.00;97.90;;;;;;4924079;29;20153;-71
2022/09/02 04:33:55;;;;;;;9.55;5.00;;;12.10;98.00;;;;;;4956865;29;20213;-72
2022/09/02 04:36:22;;;;;;;12.93;5.50;;;12.00;98.10;;;;;;4923949;29;20055;-72
2022/09/02 04:38:48;;;;;;;11.93;5.07;;;11.90;98.20;;;;;;4956827;29;20082;-71
2022/09/02 04:41:17;;;;;;;9.45;4.35;;;12.10;98.40;;;;;;4939423;29;20094;-73
2022/09/02 04:43:43;;;;;;;10.98;4.30;;;12.00;98.50;;;;;;4956890;29;20087;-71
2022/09/02 04:46:11;;;;;;;10.50;4.53;;;12.10;98.50;;;;;;4939402;29;20416;-71
2022/09/02 04:48:38;;;;;;;10.90;4.80;;;12.00;98.60;;;;;;4957379;29;20081;-71
2022/09/02 04:51:11;;;;;;;9.70;4.45;;;12.00;98.80;;;;;;4939982;29;20055;-70
2022/09/02 04:53:38;;;;;;;9.40;4.38;;;12.00;98.90;;;;;;4943647;29;20118;-71
2022/09/02 04:56:06;;;;;;;9.55;4.80;;;12.00;99.00;;;;;;4945277;29;20061;-71
2022/09/02 04:58:32;;;;;;;9.88;4.43;;;12.00;99.00;;;;;;4946074;29;20488;-71
2022/09/02 05:00:58;;;;;;;8.20;4.30;;;12.00;99.60;;;;;;4963747;29;20047;-72
2022/09/02 05:03:25;;;;;;;12.80;5.00;;;12.00;99.30;;;;;;4930569;29;20058;-71
2022/09/02 05:06:06;;;;;;;9.82;4.80;;;12.00;99.90;;;;;;4964453;29;20079;-73
2022/09/02 05:08:32;;;;;;;12.63;4.70;;;12.10;99.70;;;;;;4963245;29;20066;-73
2022/09/02 05:11:00;;;;;;;9.10;4.53;;;12.10;99.50;;;;;;4963187;29;20106;-71
2022/09/02 05:13:26;;;;;;;9.57;5.47;;;12.10;99.50;;;;;;4945361;29;20395;-73
2022/09/02 05:15:53;;;;;;;11.25;4.82;;;12.10;99.60;;;;;;4961612;29;20054;-73
2022/09/02 05:18:19;;;;;;;11.35;4.88;;;12.10;99.60;;;;;;4942562;29;20089;-72
2022/09/02 05:20:45;;;;;;;11.25;4.85;;;12.20;99.90;;;;;;4958186;29;20194;-72
2022/09/02 05:23:12;;;;;;;9.35;4.80;;;12.20;99.90;;;;;;4940881;29;20132;-72
2022/09/02 05:25:38;;;;;;;11.30;4.82;;;12.20;99.90;;;;;;4939072;29;20055;-71
2022/09/02 05:28:07;;;;;;;8.35;4.40;;;12.20;99.90;;;;;;4939303;29;20126;-71
2022/09/02 05:30:34;;;;;;;12.18;5.57;;;12.30;99.90;;;;;;4939247;29;20066;-73
2022/09/02 05:33:00;;;;;;;13.50;5.28;;;12.30;99.90;;;;;;4938847;29;20051;-72
2022/09/02 05:35:28;;;;;;;7.85;4.40;;;12.40;99.90;;;;;;4956214;29;20054;-72
2022/09/02 05:37:54;;;;;;;18.05;4.60;;;12.40;99.90;;;;;;4955629;29;20070;-71
2022/09/02 05:40:20;;;;;;;7.50;3.97;;;12.50;99.90;;;;;;4922709;29;20087;-72
2022/09/02 05:42:46;;;;;;;9.93;5.03;;;12.50;99.90;;;;;;4922899;29;20445;-71
2022/09/02 05:45:12;;;;;;;12.63;4.85;;;12.50;99.90;;;;;;4937277;29;20495;-72
2022/09/02 05:47:39;;;;;;;9.63;5.00;;;12.60;99.90;;;;;;4955345;29;20051;-72
2022/09/02 05:50:05;;;;;;;16.30;5.13;;;12.70;99.90;;;;;;4938095;29;20055;-72
2022/09/02 05:52:31;;;;;;;11.10;5.05;;;12.70;99.90;;;;;;4922654;29;20473;-73
2022/09/02 05:55:00;;;;;;;9.40;4.70;;;12.70;99.90;;;;;;4923169;29;20400;-72
2022/09/02 05:57:26;;;;;;;14.73;4.77;;;12.80;99.90;;;;;;4937915;29;20047;-74
2022/09/02 05:59:55;;;;;;;9.00;4.68;;;12.80;99.90;;;;;;4923039;29;20051;-72
2022/09/02 06:02:23;;;;;;;13.27;5.10;;;12.90;99.90;;;;;;4938282;29;20523;-71
2022/09/02 06:04:52;;;;;;;12.02;4.55;;;12.90;99.90;;;;;;4954981;29;20055;-71
2022/09/02 06:07:20;;;;;;;13.32;4.78;;;13.00;99.90;;;;;;4918538;29;20052;-73
2022/09/02 06:09:46;;;;;;;8.50;4.63;;;13.00;99.90;;;;;;4935573;29;20519;-72
2022/09/02 06:12:14;;;;;;;11.88;4.75;;;13.10;99.90;;;;;;4936488;29;20047;-72
2022/09/02 06:14:40;;;;;;;9.73;4.60;;;13.10;99.90;;;;;;4934831;29;20083;-71
2022/09/02 06:17:06;;;;;;;13.88;5.30;;;13.20;99.90;;;;;;4936363;29;20047;-73
2022/09/02 06:19:32;;;;;;;13.73;4.73;;;13.20;99.90;;;;;;4936267;29;20358;-72
2022/09/02 06:22:00;;;;;;;12.50;4.95;;;13.30;99.90;;;;;;4934632;29;20058;-72
2022/09/02 06:24:27;;;;;;;11.77;5.25;;;13.40;99.90;;;;;;4935540;29;20047;-71
2022/09/02 06:26:54;;;;;;;11.02;5.32;;;13.40;99.90;;;;;;4935298;29;20540;-72
2022/09/02 06:29:21;;;;;;;17.13;5.45;;;13.50;99.90;;;;;;4935619;29;20134;-72
2022/09/02 06:31:49;;;;;;;13.30;5.68;;;13.50;99.90;;;;;;4935772;29;20061;-72
2022/09/02 06:34:16;;;;;;;13.50;5.13;;;13.60;99.90;;;;;;4934333;29;20058;-73
2022/09/02 06:36:45;;;;;;;11.45;5.53;;;13.60;99.90;;;;;;4935253;29;20110;-73
2022/09/02 06:39:13;;;;;;;12.43;5.20;;;13.70;99.90;;;;;;4935522;29;20083;-71
2022/09/02 06:41:41;;;;;;;12.18;5.07;;;13.80;99.90;;;;;;4933861;29;20047;-72
2022/09/02 06:44:09;;;;;;;9.05;4.93;;;13.90;99.90;;;;;;4934144;29;20054;-72
2022/09/02 06:46:38;;;;;;;13.90;5.32;;;13.90;99.90;;;;;;4935144;29;20054;-71
2022/09/02 06:49:06;;;;;;;8.18;4.75;;;14.00;99.90;;;;;;4934513;29;20504;-72
2022/09/02 06:51:39;;;;;;;11.02;4.82;;;14.10;99.90;;;;;;4934031;29;20044;-72
2022/09/02 06:54:07;;;;;;;10.77;4.68;;;14.20;99.90;;;;;;4919542;29;20051;-72
2022/09/02 06:56:33;;;;;;;11.88;5.05;;;14.30;99.90;;;;;;4934108;29;20044;-73
2022/09/02 06:58:59;;;;;;;10.43;5.28;;;14.40;99.90;;;;;;4935832;29;20051;-72
2022/09/02 07:01:27;;;;;;;10.60;4.43;;;14.50;99.90;;;;;;4934657;29;20493;-72
2022/09/02 07:06:41;;;;;;;14.18;4.57;;;14.70;99.90;;;;;;4941887;29;20225;-71
2022/09/02 07:09:09;;;;;;;10.35;4.75;;;14.80;99.70;;;;;;4954416;29;20055;-72
2022/09/02 07:11:35;;;;;;;9.15;4.63;;;14.90;99.90;;;;;;4937709;29;20418;-72
2022/09/02 07:14:01;;;;;;;15.20;5.05;;;15.00;99.50;;;;;;4953998;29;20055;-72
2022/09/02 07:16:28;;;;;;;14.38;4.80;;;15.10;99.40;;;;;;4954243;29;20079;-72
2022/09/02 07:18:54;;;;;;;;;;;15.30;99.30;;;;;;4954673;29;20051;-72
2022/09/02 07:21:20;;;;;;;9.25;4.32;;;15.40;99.20;;;;;;4954385;29;19922;-72
2022/09/02 07:23:46;;;;;;;12.65;4.88;;;15.50;98.90;;;;;;4937791;29;20058;-72
2022/09/02 07:26:15;;;;;;;9.27;4.45;;;15.60;98.90;;;;;;4937119;29;20466;-72
2022/09/02 07:28:42;;;;;;;9.10;4.75;;;15.70;98.70;;;;;;4937067;29;20110;-73
2022/09/02 07:31:13;;;;;;;9.50;4.47;;;15.80;98.70;;;;;;4937758;29;20361;-72
2022/09/02 07:33:38;;;;;;;9.75;4.65;;;15.90;98.50;;;;;;4936844;29;20043;-72
2022/09/02 07:36:05;;;;;;;11.25;4.15;;;15.90;98.40;;;;;;4937115;29;20051;-71
2022/09/02 07:38:33;;;;;;;9.52;4.18;;;16.10;98.20;;;;;;4920781;29;20063;-73
2022/09/02 07:40:59;;;;;;;10.45;4.55;;;16.10;98.10;;;;;;4953867;29;20119;-71
2022/09/02 07:43:27;;;;;;;10.43;4.50;;;16.20;97.90;;;;;;4936800;29;20051;-70
2022/09/02 07:45:54;;;;;;;6.93;4.07;;;16.40;97.70;;;;;;4953463;29;20515;-73
2022/09/02 07:48:21;;;;;;;10.85;4.32;;;16.40;97.70;;;;;;4937870;29;20043;-72
2022/09/02 07:50:47;;;;;;;;;;;16.60;97.30;;;;;;4941278;29;20326;-73
2022/09/02 07:53:15;;;;;;;13.57;4.23;;;16.60;97.30;;;;;;4957598;29;19980;-71
2022/09/02 07:55:41;;;;;;;11.60;4.50;;;16.70;97.20;;;;;;4940262;29;20126;-71
2022/09/02 07:58:08;;;;;;;12.10;4.25;;;16.80;97.20;;;;;;4924556;29;20091;-72
2022/09/02 08:00:34;;;;;;;12.33;4.23;;;16.90;97.00;;;;;;4957325;29;20050;-72
2022/09/02 08:03:00;;;;;;;9.88;3.85;;;17.00;97.00;;;;;;4940451;29;20299;-71
2022/09/02 08:05:27;;;;;;;10.75;4.97;;;17.20;96.50;;;;;;4957370;29;20483;-71
2022/09/02 08:07:53;;;;;;;10.95;3.88;;;17.20;96.50;;;;;;4957160;29;20429;-70
2022/09/02 08:10:19;;;;;;;14.32;4.07;;;17.40;96.60;;;;;;4957374;29;20356;-72
2022/09/02 08:12:46;;;;;;;10.90;3.88;;;17.40;96.60;;;;;;4940175;29;20055;-72
2022/09/02 08:15:12;;;;;;;10.13;4.18;;;17.60;96.40;;;;;;4956810;29;20579;-71
2022/09/02 08:17:40;;;;;;;10.85;3.95;;;17.70;96.30;;;;;;4957230;29;20444;-74
2022/09/02 08:20:08;;;;;;;8.15;3.47;;;17.80;95.80;;;;;;4957123;29;20418;-72
2022/09/02 08:22:35;;;;;;;9.05;3.65;;;17.90;95.50;;;;;;4940159;29;20063;-72
2022/09/02 08:25:01;;;;;;;9.48;3.65;;;18.00;95.70;;;;;;4957253;29;20079;-73
2022/09/02 08:27:27;;;;;;;12.48;3.38;;;18.10;95.40;;;;;;4940145;29;20039;-72
2022/09/02 08:29:53;;;;;;;16.40;3.67;;;18.20;95.10;;;;;;4956731;29;20051;-73
2022/09/02 08:32:19;;;;;;;7.88;3.63;;;18.30;95.10;;;;;;4939787;29;20102;-72
2022/09/02 08:34:45;;;;;;;11.07;4.10;;;18.40;95.00;;;;;;4939620;29;20085;-71
2022/09/02 08:37:10;;;;;;;10.70;3.75;;;18.50;94.80;;;;;;4957572;29;20429;-71
2022/09/02 08:39:37;;;;;;;13.68;3.58;;;18.50;94.60;;;;;;4957352;29;20047;-71
2022/09/02 08:42:16;;;;;;;12.02;3.90;;;18.60;94.30;;;;;;4939911;29;20469;-72
2022/09/02 08:44:42;;;;;;;9.55;3.40;;;18.70;94.00;;;;;;4939749;29;20051;-74
2022/09/02 08:47:14;;;;;;;6.97;3.50;;;18.80;94.10;;;;;;4940219;29;20178;-73
2022/09/02 08:49:48;;;;;;;11.90;3.33;;;18.90;93.70;;;;;;4956845;29;20050;-72
2022/09/02 08:52:42;;;;;;;7.90;2.78;;;19.10;92.70;;;;;;4939866;29;20062;-72
2022/09/02 08:55:23;;;;;;;18.38;3.33;;;19.10;93.20;;;;;;4955649;29;20062;-71
2022/09/02 08:57:50;;;;;;;9.05;3.35;;;19.20;93.40;;;;;;4956606;29;20043;-72
2022/09/02 09:00:16;;;;;;;9.25;3.53;;;19.30;93.30;;;;;;4938246;29;20057;-71
2022/09/02 09:02:52;;;;;;;10.93;3.38;;;19.40;92.90;;;;;;4939024;29;20445;-73
2022/09/02 09:05:30;;;;;;;8.50;3.33;;;19.50;92.40;;;;;;4939854;29;20051;-71
2022/09/02 09:08:14;;;;;;;9.77;3.05;;;19.60;92.30;;;;;;4956500;29;20138;-71
2022/09/02 09:11:09;;;;;;;12.20;3.15;;;19.70;92.10;;;;;;4956561;29;20051;-73
2022/09/02 09:13:50;;;;;;;9.35;3.00;;;19.80;91.60;;;;;;4956216;29;20054;-71
2022/09/02 09:16:58;;;;;;;12.25;3.10;;;19.80;91.70;;;;;;4956050;29;20051;-72
2022/09/02 09:19:43;;;;;;;11.05;3.20;;;19.90;91.60;;;;;;4911101;29;20063;-72
2022/09/02 09:22:13;;;;;;;8.10;2.72;;;20.00;91.20;;;;;;4938546;29;20055;-72
2022/09/02 09:24:43;;;;;;;10.75;2.97;;;20.10;91.20;;;;;;4939057;29;20129;-72
2022/09/02 09:27:12;;;;;;;9.35;2.53;;;20.20;90.90;;;;;;4955870;29;20079;-73
2022/09/02 09:29:38;;;;;;;8.13;3.00;;;20.30;90.70;;;;;;4938846;29;20039;-73
2022/09/02 09:32:14;;;;;;;8.10;2.90;;;20.40;90.50;;;;;;4939381;29;20472;-72
2022/09/02 09:34:52;;;;;;;12.80;2.67;;;20.50;90.50;;;;;;4956889;29;20126;-72
2022/09/02 09:37:31;;;;;;;9.10;2.70;;;20.60;89.10;;;;;;4938735;29;20051;-73
2022/09/02 09:39:57;;;;;;;11.25;2.83;;;20.60;90.20;;;;;;4955868;29;20051;-72
2022/09/02 09:42:32;;;;;;;8.83;3.10;;;20.70;90.00;;;;;;4938785;29;20039;-71
2022/09/02 09:44:58;;;;;;;10.57;2.55;;;20.70;89.30;;;;;;4938633;29;20061;-73
2022/09/02 09:47:25;;;;;;;9.00;2.70;;;20.80;88.30;;;;;;4938554;29;20451;-73
2022/09/02 09:49:52;;;;;;;;;;;20.80;88.10;;;;;;4922989;29;20400;-72
2022/09/02 09:52:26;;;;;;;9.15;2.58;;;20.90;87.20;;;;;;4955241;29;19969;-71
2022/09/02 09:55:17;;;;;;;8.35;2.60;;;21.00;87.70;;;;;;4922591;29;20055;-71
2022/09/02 09:57:45;;;;;;;5.50;2.42;;;21.10;85.80;;;;;;4938394;29;20373;-71
2022/09/02 10:00:21;;;;;;;8.98;2.50;;;21.20;88.10;;;;;;4955099;29;20051;-73
2022/09/02 10:02:53;;;;;;;8.88;2.50;;;21.20;85.90;;;;;;4955380;29;20047;-72
2022/09/02 10:05:29;;;;;;;8.48;2.35;;;21.30;85.30;;;;;;4937734;29;20051;-71
2022/09/02 10:08:14;;;;;;;6.70;2.17;;;21.40;84.50;;;;;;4955797;29;20055;-71
2022/09/02 10:10:58;;;;;;;7.47;2.00;;;21.50;83.50;;;;;;4955533;28;20047;-71
2022/09/02 10:13:28;;;;;;;6.20;2.30;;;21.60;82.20;;;;;;4937988;29;20502;-71
2022/09/02 10:15:59;;;;;;;11.45;2.17;;;21.80;82.20;;;;;;4954858;29;20113;-76
2022/09/02 10:18:45;;;;;;;10.68;2.00;;;21.80;80.90;;;;;;4955031;29;20043;-71
2022/09/02 10:21:55;;;;;;;9.37;2.30;;;21.90;81.50;;;;;;4922779;29;20310;-70
2022/09/02 10:24:40;;;;;;;7.13;2.05;;;21.90;82.00;;;;;;4955464;29;20043;-71
2022/09/02 10:27:10;;;;;;;6.50;2.03;;;21.90;80.90;;;;;;4937508;29;20043;-70
2022/09/02 10:29:45;;;;;;;11.13;1.90;;;22.10;79.20;;;;;;4954734;29;20050;-71
2022/09/02 10:32:35;;;;;;;9.70;2.50;;;22.20;76.40;;;;;;4954673;29;20057;-71
2022/09/02 10:35:16;;;;;;;5.65;2.22;;;22.20;77.10;;;;;;4955306;29;20134;-71
2022/09/02 10:38:13;;;;;;;8.30;1.90;;;22.20;77.80;;;;;;4937656;29;20055;-71
2022/09/02 10:40:40;;;;;;;7.70;2.20;;;22.20;76.40;;;;;;4937343;29;20055;-71
2022/09/02 10:43:19;;;;;;;6.82;2.22;;;22.30;76.30;;;;;;4955137;29;20106;-71
2022/09/02 10:45:47;;;;;;;8.35;2.38;;;22.30;77.00;;;;;;4921764;29;20451;-72
2022/09/02 10:48:25;;;;;;;7.90;1.98;;;22.40;76.10;;;;;;4954519;29;20340;-71
2022/09/02 10:50:57;;;;;;;10.48;2.28;;;22.50;76.60;;;;;;4938171;29;20134;-71
2022/09/02 10:53:31;;;;;;;7.40;1.98;;;22.50;76.20;;;;;;4937482;29;20043;-72
2022/09/02 10:56:17;;;;;;;6.82;2.17;;;22.60;76.20;;;;;;4954399;29;20051;-74
2022/09/02 10:58:53;;;;;;;9.73;2.28;;;22.60;76.50;;;;;;4922431;29;20093;-72
2022/09/02 11:01:27;;;;;;;7.07;2.20;;;22.80;75.40;;;;;;4921508;29;20078;-71
2022/09/02 11:04:20;;;;;;;6.80;1.90;;;22.80;75.60;;;;;;4937233;29;20047;-71
2022/09/02 11:06:49;;;;;;;8.30;2.17;;;22.80;74.70;;;;;;4953982;29;20066;-72
2022/09/02 11:09:24;;;;;;;4.32;1.77;;;22.90;74.00;;;;;;4937170;29;20533;-71
2022/09/02 11:12:31;;;;;;;5.57;1.85;;;23.00;73.80;;;;;;4954412;29;20050;-71
2022/09/02 11:15:38;;;;;;;9.65;2.35;;;23.00;73.80;;;;;;4936901;29;20110;-72
2022/09/02 11:18:18;;;;;;;8.27;2.00;;;23.10;73.10;;;;;;4889711;29;20059;-71
2022/09/02 11:20:55;;;;;;;5.93;2.50;;;23.20;73.60;;;;;;4954961;29;20075;-72
2022/09/02 11:23:42;;;;;;;8.25;2.30;;;23.20;72.10;;;;;;4924009;29;20134;-72
2022/09/02 11:26:23;;;;;;;7.38;2.42;;;23.20;72.70;;;;;;4943374;29;20087;-72
2022/09/02 11:29:00;;;;;;;6.30;1.90;;;23.20;72.40;;;;;;4961189;29;20047;-72
2022/09/02 11:31:28;;;;;;;;;;;23.20;71.40;;;;;;4961422;29;20078;-72
2022/09/02 11:34:21;;;;;;;9.30;2.20;;;23.30;71.70;;;;;;4961218;29;19926;-72
2022/09/02 11:36:47;;;;;;;8.13;2.15;;;23.40;71.00;;;;;;4962441;29;20070;-72
2022/09/02 11:39:30;;;;;;;8.15;2.13;;;23.40;71.30;;;;;;4962493;29;20059;-70
2022/09/02 11:42:14;;;;;;;7.57;2.38;;;23.40;71.10;;;;;;4946312;29;20129;-72
2022/09/02 11:45:09;;;;;;;6.50;2.30;;;23.60;70.10;;;;;;4945499;29;20055;-71
2022/09/02 11:48:19;;;;;;;10.13;2.42;;;23.50;70.40;;;;;;4934640;29;20051;-70
2022/09/02 11:50:53;;;;;;;5.03;2.20;;;23.50;70.70;;;;;;4905444;29;20061;-71
2022/09/02 11:53:39;;;;;;;9.55;2.35;;;23.50;71.20;;;;;;4955221;29;20158;-72
2022/09/02 11:56:11;;;;;;;9.20;2.30;;;23.60;70.60;;;;;;4945840;29;20112;-73
2022/09/02 11:58:43;;;;;;;13.30;2.42;;;23.70;69.90;;;;;;4961938;29;20059;-73
2022/09/02 12:01:14;;;;;;;6.90;2.42;;;23.70;69.50;;;;;;4943116;29;20044;-73
2022/09/02 12:04:12;;;;;;;7.78;2.30;;;23.70;69.50;;;;;;4959000;29;20129;-72
2022/09/02 12:07:07;;;;;;;10.98;2.55;;;23.80;69.40;;;;;;4945657;29;20055;-73
2022/09/02 12:09:59;;;;;;;8.68;2.22;;;23.80;67.90;;;;;;4957716;29;20052;-74
2022/09/02 12:12:37;;;;;;;8.25;2.40;;;23.90;69.20;;;;;;4922958;29;20231;-72
2022/09/02 12:15:06;;;;;;;7.55;2.30;;;24.00;68.00;;;;;;4940579;29;20047;-73
2022/09/02 12:17:36;;;;;;;;;;;23.90;67.70;;;;;;4940793;29;20051;-74
2022/09/02 12:20:37;;;;;;;5.03;2.08;;;23.90;69.20;;;;;;4957670;29;19926;-73
2022/09/02 12:23:04;;;;;;;8.48;2.28;;;24.00;68.20;;;;;;4957542;28;20102;-72
2022/09/02 12:25:32;;;;;;;7.60;2.22;;;24.10;67.50;;;;;;4957528;29;20109;-71
2022/09/02 12:28:17;;;;;;;12.63;2.20;;;24.10;67.10;;;;;;4940053;29;20058;-73
2022/09/02 12:30:55;;;;;;;6.32;2.30;;;24.20;65.80;;;;;;4957203;29;20054;-72
2022/09/02 12:33:35;;;;;;;10.82;2.70;;;24.30;66.20;;;;;;4957662;29;20077;-74
2022/09/02 12:36:03;;;;;;;6.28;2.60;;;24.20;65.90;;;;;;4939028;29;20059;-73
2022/09/02 12:38:33;;;;;;;9.48;2.72;;;24.30;66.10;;;;;;4957405;29;20047;-73
2022/09/02 12:41:04;;;;;;;8.18;2.60;;;24.30;65.80;;;;;;4924250;29;20058;-73
2022/09/02 12:43:46;;;;;;;7.50;2.42;;;24.30;65.70;;;;;;4939801;29;20543;-72
2022/09/02 12:46:22;;;;;;;8.10;2.20;;;24.30;66.60;;;;;;4956791;29;20051;-72
2022/09/02 12:49:14;;;;;;;11.02;2.38;;;24.30;67.00;;;;;;4940768;29;20067;-73
2022/09/02 12:51:56;;;;;;;12.43;2.60;;;24.30;66.80;;;;;;4940204;29;20432;-73
2022/09/02 12:54:42;;;;;;;7.90;2.38;;;24.40;65.50;;;;;;4939841;29;20500;-74
2022/09/02 12:57:10;;;;;;;9.75;3.13;;;24.40;63.60;;;;;;4956820;29;20047;-73
2022/09/02 12:59:40;;;;;;;11.88;2.72;;;24.40;65.90;;;;;;4939613;29;20503;-73
2022/09/02 13:02:30;;;;;;;9.65;2.60;;;24.40;66.00;;;;;;4956756;29;20047;-73
2022/09/02 13:05:13;;;;;;;7.32;2.55;;;24.40;66.10;;;;;;4956656;29;20054;-73
2022/09/02 13:08:17;;;;;;;13.23;2.67;;;24.50;65.70;;;;;;4956966;29;20062;-72
2022/09/02 13:11:34;;;;;;;8.13;2.80;;;24.60;65.40;;;;;;4939718;29;20483;-73
2022/09/02 13:14:28;;;;;;;10.93;2.85;;;24.50;64.70;;;;;;4943982;29;20120;-73
2022/09/02 13:17:21;;;;;;;17.38;3.20;;;24.60;65.00;;;;;;4956898;29;20047;-73
2022/09/02 13:19:57;;;;;;;8.65;2.92;;;24.60;64.30;;;;;;4956685;29;20122;-73
2022/09/02 13:22:41;;;;;;;12.02;2.95;;;24.70;64.40;;;;;;4956847;29;20051;-73
2022/09/02 13:25:35;;;;;;;6.65;2.72;;;24.80;64.40;;;;;;4956652;29;20101;-72